TAF Text Data
IDs:
Format:
Raw Decoded Include METAR

Data at: 0242 UTC 25 Jan 2020

KDVN 250152Z AUTO 30007KT 1 3/4SM -SN BR OVC003 01/M01 A2986 RMK AO2 SLP116 P0000 T00061006


KMLI 250157Z 28006KT 1 3/4SM SN BR OVC005 01/00 A2985 RMK AO2 P0000 T00110000

KMLI 250237Z 2503/2524 30006KT 1 1/2SM -SN BR OVC004
  FM250500 30011KT 3SM -SN BR OVC004
  FM251000 32012KT 6SM BR OVC006